Time;durP1;ratioP1;P1;durP2;ratioP2;P2;SDS_P1;SDS_P2;PMS_P1;PMS_P2;Temp;Humidity;BMP_temperature;BMP_pressure;BME280_temperature;BME280_humidity;BME280_pressure;Samples;Min_cycle;Max_cycle;Signal;HPM_P1;HPM_P2
2023/01/21 00:00:04;;;;;;;0.70;0.23;;;;;;;0.97;100.00;98735.25;5113153;28;20221;-60
2023/01/21 00:02:31;;;;;;;0.97;0.63;;;;;;;0.86;100.00;98730.63;5112830;28;20288;-58
2023/01/21 00:05:00;;;;;;;0.63;0.63;;;;;;;0.74;100.00;98728.56;5112759;28;20221;-58
2023/01/21 00:07:26;;;;;;;0.97;0.70;;;;;;;0.71;100.00;98726.19;5112599;28;20606;-58
2023/01/21 00:09:53;;;;;;;0.20;0.20;;;;;;;0.68;100.00;98732.13;5112855;28;20217;-58
2023/01/21 00:12:20;;;;;;;0.40;0.40;;;;;;;0.71;100.00;98743.78;5112829;28;20232;-58
2023/01/21 00:14:47;;;;;;;0.27;0.27;;;;;;;0.85;100.00;98767.53;5112657;28;20228;-60
2023/01/21 00:17:14;;;;;;;2.10;1.03;;;;;;;0.82;100.00;98764.34;5112616;28;20197;-58
2023/01/21 00:19:41;;;;;;;0.97;0.90;;;;;;;0.87;100.00;98762.44;5112953;28;20221;-58
2023/01/21 00:22:09;;;;;;;0.20;0.20;;;;;;;0.84;100.00;98770.09;5112432;28;20201;-58
2023/01/21 00:24:36;;;;;;;0.40;0.40;;;;;;;0.78;100.00;98765.31;5112476;28;20236;-57
2023/01/21 00:27:03;;;;;;;0.37;0.20;;;;;;;0.84;100.00;98765.91;5112522;28;20201;-60
2023/01/21 00:29:29;;;;;;;0.87;0.53;;;;;;;0.89;100.00;98758.19;5112258;28;20221;-58
2023/01/21 00:31:56;;;;;;;0.43;0.43;;;;;;;0.94;100.00;98756.31;5112168;28;20229;-58
2023/01/21 00:34:23;;;;;;;0.27;0.27;;;;;;;0.93;100.00;98764.72;5112482;28;20217;-58
2023/01/21 00:36:50;;;;;;;0.50;0.50;;;;;;;0.86;100.00;98775.91;5111957;28;20589;-59
2023/01/21 00:39:18;;;;;;;0.33;0.33;;;;;;;0.76;100.00;98777.97;5111963;28;20213;-58
2023/01/21 00:41:45;;;;;;;0.13;0.13;;;;;;;0.75;100.00;98770.47;5112023;28;20202;-58
2023/01/21 00:44:12;;;;;;;0.67;0.67;;;;;;;0.73;100.00;98777.22;5112297;28;20217;-60
2023/01/21 00:46:39;;;;;;;0.93;0.87;;;;;;;0.71;100.00;98784.84;5112211;28;20481;-58
2023/01/21 00:49:06;;;;;;;0.43;0.40;;;;;;;0.66;100.00;98792.56;5111778;28;20213;-58
2023/01/21 00:51:32;;;;;;;1.33;0.53;;;;;;;0.53;100.00;98783.84;5111888;28;20193;-58
2023/01/21 00:53:59;;;;;;;0.40;0.40;;;;;;;0.59;100.00;98771.03;5112185;28;20233;-57
2023/01/21 00:56:27;;;;;;;0.70;0.70;;;;;;;0.57;100.00;98771.97;5111748;28;20206;-60
2023/01/21 00:58:54;;;;;;;1.33;0.63;;;;;;;0.50;100.00;98771.38;5111782;28;20220;-60
2023/01/21 01:01:22;;;;;;;0.93;0.93;;;;;;;0.61;100.00;98774.31;5111682;28;20194;-58
2023/01/21 01:03:50;;;;;;;0.40;0.40;;;;;;;0.60;100.00;98766.81;5111975;28;20213;-60
2023/01/21 01:06:19;;;;;;;2.60;0.70;;;;;;;0.45;100.00;98768.19;5111300;28;20189;-58
2023/01/21 01:08:48;;;;;;;1.13;1.00;;;;;;;0.45;100.00;98768.19;5111273;28;20232;-60
2023/01/21 01:11:15;;;;;;;1.40;1.13;;;;;;;0.41;100.00;98766.69;5111856;28;20273;-60
2023/01/21 01:13:44;;;;;;;0.80;0.80;;;;;;;0.43;100.00;98768.25;5111541;28;20224;-58
2023/01/21 01:16:14;;;;;;;0.30;0.30;;;;;;;0.46;100.00;98759.78;5111468;28;20204;-60
2023/01/21 01:18:41;;;;;;;1.90;0.70;;;;;;;0.47;100.00;98751.38;5111489;28;20228;-60
2023/01/21 01:21:11;;;;;;;0.37;0.37;;;;;;;0.54;100.00;98747.75;5111600;28;20603;-58
2023/01/21 01:23:38;;;;;;;1.23;0.67;;;;;;;0.61;100.00;98758.38;5111379;28;20213;-60
2023/01/21 01:26:09;;;;;;;0.50;0.50;;;;;;;0.60;100.00;98752.53;5111144;28;20204;-58
2023/01/21 01:28:36;;;;;;;0.73;0.67;;;;;;;0.65;100.00;98758.22;5111434;28;20597;-58
2023/01/21 01:31:07;;;;;;;0.40;0.40;;;;;;;0.67;100.00;98748.13;5110927;28;20189;-58
2023/01/21 01:33:34;;;;;;;0.50;0.50;;;;;;;0.68;100.00;98749.75;5111289;28;20233;-60
2023/01/21 01:36:03;;;;;;;0.60;0.60;;;;;;;0.71;100.00;98743.78;5111003;28;20201;-60
2023/01/21 01:38:31;;;;;;;0.53;0.47;;;;;;;0.64;100.00;98739.00;5111033;28;20217;-60
2023/01/21 01:40:57;;;;;;;0.57;0.47;;;;;;;0.60;100.00;98724.88;5110853;28;20201;-58
2023/01/21 01:43:26;;;;;;;0.30;0.30;;;;;;;0.55;100.00;98714.16;5111139;28;20322;-58
2023/01/21 01:45:53;;;;;;;1.03;0.87;;;;;;;0.60;100.00;98712.28;5110716;28;20231;-58
2023/01/21 01:48:27;;;;;;;0.20;0.20;;;;;;;0.66;100.00;98704.50;5110990;28;20203;-58
2023/01/21 01:50:55;;;;;;;0.50;0.50;;;;;;;0.67;100.00;98703.66;5111157;28;20342;-59
2023/01/21 01:53:22;;;;;;;0.37;0.37;;;;;;;0.72;100.00;98707.69;5110651;28;20235;-58
2023/01/21 01:55:50;;;;;;;0.27;0.27;;;;;;;0.65;100.00;98728.03;5110760;28;20204;-60
2023/01/21 01:58:19;;;;;;;0.83;0.83;;;;;;;0.61;100.00;98725.69;5110391;28;20212;-60
2023/01/21 02:00:46;;;;;;;0.53;0.47;;;;;;;0.73;100.00;98716.84;5110909;28;20207;-60
2023/01/21 02:05:59;;;;;;;0.30;0.30;;;;;;;0.74;100.00;98721.03;5110620;28;20196;-58
2023/01/21 02:08:27;;;;;;;0.53;0.53;;;;;;;0.67;100.00;98717.94;5110352;28;20284;-57
2023/01/21 02:10:55;;;;;;;0.27;0.27;;;;;;;0.73;100.00;98712.66;5110271;28;20209;-58
2023/01/21 02:13:23;;;;;;;1.80;1.03;;;;;;;0.79;100.00;98726.72;5110359;28;20225;-57
2023/01/21 02:16:03;;;;;;;0.60;0.60;;;;;;;0.64;100.00;98744.03;5110255;28;20685;-58
2023/01/21 02:18:40;;;;;;;0.20;0.20;;;;;;;0.47;100.00;98737.94;5110102;28;20601;-58
2023/01/21 02:21:58;;;;;;;2.80;0.97;;;;;;;0.36;100.00;98738.38;5110186;28;20201;-58
2023/01/21 02:24:55;;;;;;;2.10;0.30;;;;;;;0.26;100.00;98739.56;5073287;28;20225;-60
2023/01/21 02:27:49;;;;;;;0.50;0.50;;;;;;;0.24;100.00;98743.84;5110254;28;20802;-60
2023/01/21 02:30:36;;;;;;;0.47;0.47;;;;;;;0.27;100.00;98746.25;5110402;28;20220;-58
2023/01/21 02:33:29;;;;;;;0.30;0.30;;;;;;;0.30;100.00;98748.66;5110112;28;20235;-59
2023/01/21 02:36:04;;;;;;;0.40;0.40;;;;;;;0.37;100.00;98743.31;5110044;28;20899;-58
2023/01/21 02:38:39;;;;;;;0.83;0.83;;;;;;;0.43;100.00;98744.78;5110160;28;20220;-60
2023/01/21 02:41:16;;;;;;;0.33;0.33;;;;;;;0.38;100.00;98741.66;5110284;28;20201;-58
2023/01/21 02:43:50;;;;;;;0.60;0.43;;;;;;;0.44;100.00;98746.44;5109926;28;20217;-59
2023/01/21 02:46:22;;;;;;;0.83;0.70;;;;;;;0.49;100.00;98739.53;5109838;28;20205;-60
2023/01/21 02:48:55;;;;;;;0.70;0.70;;;;;;;0.71;100.00;98734.53;5110157;28;20214;-58
2023/01/21 02:51:23;;;;;;;0.23;0.23;;;;;;;0.54;100.00;98747.75;5110051;28;20200;-60
2023/01/21 02:53:50;;;;;;;1.83;0.67;;;;;;;0.42;100.00;98748.19;5109622;28;20244;-57
2023/01/21 02:56:20;;;;;;;0.80;0.63;;;;;;;0.42;100.00;98745.69;5109675;28;20197;-59
2023/01/21 02:58:50;;;;;;;0.77;0.37;;;;;;;0.45;100.00;98727.97;5110130;28;20593;-58
2023/01/21 03:01:29;;;;;;;0.50;0.50;;;;;;;0.50;100.00;98730.31;5109853;28;20198;-60
2023/01/21 03:04:31;;;;;;;0.20;0.20;;;;;;;0.47;100.00;98721.19;5109765;28;20243;-60
2023/01/21 03:07:07;;;;;;;0.30;0.30;;;;;;;0.52;100.00;98714.25;5096483;28;20207;-60
2023/01/21 03:09:35;;;;;;;0.50;0.50;;;;;;;0.50;100.00;98723.59;5110085;28;20213;-60
2023/01/21 03:12:30;;;;;;;0.13;0.13;;;;;;;0.42;100.00;98733.91;5109902;28;20197;-58
2023/01/21 03:17:56;;;;;;;0.40;0.30;;;;;;;0.59;100.00;98740.84;5109561;28;20189;-60
2023/01/21 03:20:26;;;;;;;0.60;0.57;;;;;;;0.45;100.00;98736.31;5109618;28;20221;-60
2023/01/21 03:22:59;;;;;;;0.43;0.43;;;;;;;0.38;100.00;98726.56;5109749;28;20423;-60
2023/01/21 03:25:29;;;;;;;0.40;0.40;;;;;;;0.36;100.00;98720.75;5110003;28;20240;-59
2023/01/21 03:27:58;;;;;;;0.37;0.37;;;;;;;0.39;100.00;98710.59;5109390;28;20616;-58
2023/01/21 03:30:27;;;;;;;0.57;0.57;;;;;;;0.31;100.00;98720.09;5110890;28;20231;-60
2023/01/21 03:32:57;;;;;;;0.67;0.60;;;;;;;0.25;100.00;98710.28;5113023;28;20239;-60
2023/01/21 03:35:29;;;;;;;1.50;1.13;;;;;;;0.33;100.00;98708.31;5113352;28;20224;-60
2023/01/21 03:38:03;;;;;;;0.67;0.63;;;;;;;0.42;100.00;98697.91;5112970;27;20215;-58
2023/01/21 03:40:35;;;;;;;1.17;0.67;;;;;;;0.42;100.00;98706.25;5113302;28;20700;-60
2023/01/21 03:43:03;;;;;;;0.40;0.40;;;;;;;0.56;100.00;98710.78;5113087;28;20201;-60
2023/01/21 03:45:36;;;;;;;0.87;0.87;;;;;;;0.74;100.00;98724.34;5112904;28;20617;-60
2023/01/21 03:48:18;;;;;;;0.40;0.40;;;;;;;0.44;100.00;98721.31;5113033;28;20198;-58
2023/01/21 03:50:51;;;;;;;0.30;0.30;;;;;;;0.44;100.00;98726.34;5113249;28;20205;-60
2023/01/21 03:53:20;;;;;;;1.00;1.00;;;;;;;0.49;100.00;98728.66;5112835;28;20232;-58
2023/01/21 03:55:50;;;;;;;0.43;0.43;;;;;;;0.40;100.00;98727.31;5113157;28;20268;-58
2023/01/21 03:58:16;;;;;;;0.50;0.50;;;;;;;0.35;100.00;98722.47;5112802;28;20231;-59
2023/01/21 04:00:45;;;;;;;0.90;0.60;;;;;;;0.73;100.00;98731.94;5112873;28;20585;-57
2023/01/21 04:03:11;;;;;;;2.70;0.50;;;;;;;0.66;100.00;98744.75;5112520;28;20301;-58
2023/01/21 04:05:38;;;;;;;0.50;0.50;;;;;;;0.67;100.00;98755.66;5113042;28;20207;-60
2023/01/21 04:08:05;;;;;;;1.50;0.93;;;;;;;0.59;100.00;98760.16;5112712;28;20197;-60
2023/01/21 04:10:33;;;;;;;1.47;1.23;;;;;;;0.57;100.00;98762.72;5112628;28;20221;-58
2023/01/21 04:13:00;;;;;;;2.03;0.47;;;;;;;0.51;100.00;98767.97;5112769;28;20229;-58
2023/01/21 04:15:27;;;;;;;0.77;0.77;;;;;;;0.44;100.00;98744.75;5112556;28;20221;-60
2023/01/21 04:17:54;;;;;;;0.70;0.70;;;;;;;0.44;100.00;98726.34;5112059;28;20199;-59
2023/01/21 04:20:21;;;;;;;1.23;0.93;;;;;;;0.45;100.00;98722.94;5112965;28;20217;-60
2023/01/21 04:22:47;;;;;;;1.00;1.00;;;;;;;0.48;100.00;98727.03;5111954;28;20201;-58
2023/01/21 04:25:14;;;;;;;1.23;0.87;;;;;;;0.33;100.00;98723.38;5112429;28;20221;-58
2023/01/21 04:27:43;;;;;;;2.23;1.50;;;;;;;0.47;100.00;98735.44;5112209;28;20197;-58
2023/01/21 04:30:11;;;;;;;1.63;0.57;;;;;;;0.33;100.00;98719.16;5112240;28;20248;-59
2023/01/21 04:32:37;;;;;;;1.03;0.67;;;;;;;0.35;100.00;98736.69;5111889;28;20665;-58
2023/01/21 04:35:05;;;;;;;0.37;0.37;;;;;;;0.29;100.00;98752.00;5112253;28;20236;-58
2023/01/21 04:37:32;;;;;;;1.07;0.90;;;;;;;0.21;100.00;98750.59;5111937;28;20205;-58
2023/01/21 04:39:59;;;;;;;1.47;1.37;;;;;;;0.34;100.00;98745.13;5112436;28;20231;-58
2023/01/21 04:42:25;;;;;;;1.30;1.20;;;;;;;0.36;100.00;98733.34;5110703;28;20216;-60
2023/01/21 04:44:54;;;;;;;1.30;1.23;;;;;;;0.30;100.00;98731.03;5112064;28;20615;-60
2023/01/21 04:47:21;;;;;;;3.03;0.90;;;;;;;0.20;100.00;98721.31;5112099;28;20201;-58
2023/01/21 04:49:48;;;;;;;0.73;0.73;;;;;;;-0.14;100.00;98713.34;5111428;28;20624;-60
2023/01/21 04:52:15;;;;;;;1.33;1.23;;;;;;;-0.50;100.00;98711.19;5111537;28;20262;-58
2023/01/21 04:54:42;;;;;;;1.53;1.43;;;;;;;-0.46;100.00;98700.19;5111280;28;20233;-60
2023/01/21 04:57:09;;;;;;;1.17;1.07;;;;;;;-0.47;100.00;98680.94;5111361;27;20194;-60
2023/01/21 04:59:36;;;;;;;2.30;1.00;;;;;;;-0.31;100.00;98677.03;5111757;28;20229;-58
2023/01/21 05:02:04;;;;;;;0.43;0.43;;;;;;;0.15;100.00;98705.56;5111608;28;20193;-58
2023/01/21 05:04:32;;;;;;;2.87;1.13;;;;;;;0.09;100.00;98718.38;5111590;28;20475;-60
2023/01/21 05:06:59;;;;;;;1.63;0.83;;;;;;;-0.16;100.00;98720.09;5111466;28;20201;-58
2023/01/21 05:09:26;;;;;;;1.23;0.77;;;;;;;-0.14;100.00;98726.72;5111338;28;20830;-60
2023/01/21 05:11:52;;;;;;;0.30;0.30;;;;;;;-0.15;100.00;98742.63;5111237;28;20301;-60
2023/01/21 05:14:19;;;;;;;0.67;0.67;;;;;;;-0.09;100.00;98724.03;5111144;28;20241;-60
2023/01/21 05:16:46;;;;;;;0.57;0.37;;;;;;;-0.05;100.00;98736.44;5111215;28;20197;-58
2023/01/21 05:19:15;;;;;;;1.13;1.03;;;;;;;0.01;100.00;98732.09;5111530;28;20244;-58
2023/01/21 05:21:41;;;;;;;1.03;0.93;;;;;;;0.09;100.00;98735.97;5111194;28;20208;-60
2023/01/21 05:24:09;;;;;;;2.47;1.23;;;;;;;-0.15;100.00;98737.63;5111195;28;20277;-60
2023/01/21 05:26:36;;;;;;;0.87;0.50;;;;;;;-0.22;100.00;98758.00;5111236;28;20207;-59
2023/01/21 05:29:03;;;;;;;0.97;0.97;;;;;;;-0.17;100.00;98766.19;5111083;28;20217;-58
2023/01/21 05:31:30;;;;;;;1.53;1.20;;;;;;;-0.16;100.00;98756.09;5110908;28;20198;-60
2023/01/21 05:33:58;;;;;;;0.27;0.27;;;;;;;-0.14;100.00;98743.47;5109646;28;20233;-60
2023/01/21 05:36:28;;;;;;;0.40;0.40;;;;;;;0.05;100.00;98744.47;5111119;28;20470;-58
2023/01/21 05:38:55;;;;;;;0.70;0.70;;;;;;;-0.08;100.00;98743.28;5110569;28;20209;-58
2023/01/21 05:41:21;;;;;;;0.20;0.20;;;;;;;-0.09;100.00;98721.50;5110994;28;20230;-60
2023/01/21 05:43:48;;;;;;;1.90;0.90;;;;;;;0.04;100.00;98717.72;5110573;28;20244;-60
2023/01/21 05:46:15;;;;;;;3.40;1.20;;;;;;;0.31;100.00;98735.19;5111219;28;20216;-58
2023/01/21 05:48:42;;;;;;;0.60;0.60;;;;;;;0.04;100.00;98727.75;5110859;28;20225;-58
2023/01/21 05:51:09;;;;;;;0.60;0.60;;;;;;;-0.01;100.00;98720.38;5110901;28;20592;-60
2023/01/21 05:53:37;;;;;;;1.20;1.03;;;;;;;0.13;100.00;98722.41;5110021;28;20229;-58
2023/01/21 05:56:05;;;;;;;0.37;0.37;;;;;;;0.23;100.00;98712.81;5110634;28;21069;-60
2023/01/21 05:58:31;;;;;;;2.43;0.90;;;;;;;0.26;100.00;98709.38;5110584;28;20217;-60
2023/01/21 06:01:01;;;;;;;1.03;0.87;;;;;;;0.27;100.00;98708.53;5110459;28;20197;-59
2023/01/21 06:03:28;;;;;;;0.80;0.80;;;;;;;0.31;100.00;98705.81;5110335;28;20233;-58
2023/01/21 06:05:55;;;;;;;0.23;0.23;;;;;;;0.44;100.00;98717.09;5110415;28;20199;-60
2023/01/21 06:08:24;;;;;;;0.30;0.30;;;;;;;0.54;100.00;98729.31;5110186;28;20198;-58
2023/01/21 06:10:55;;;;;;;0.40;0.40;;;;;;;0.69;100.00;98733.75;5110454;28;20628;-58
2023/01/21 06:13:22;;;;;;;0.47;0.47;;;;;;;0.68;100.00;98725.41;5109877;28;20280;-58
2023/01/21 06:15:49;;;;;;;1.10;1.00;;;;;;;0.75;100.00;98735.22;5110354;28;20208;-59
2023/01/21 06:18:16;;;;;;;1.70;1.60;;;;;;;0.83;100.00;98743.31;5110130;28;20197;-60
2023/01/21 06:20:43;;;;;;;1.53;1.43;;;;;;;0.89;100.00;98743.88;5110805;28;20201;-60
2023/01/21 06:23:10;;;;;;;0.43;0.43;;;;;;;1.01;100.00;98742.59;5109945;28;20200;-59
2023/01/21 06:25:37;;;;;;;0.73;0.73;;;;;;;1.04;100.00;98745.00;5110222;28;20201;-60
2023/01/21 06:28:05;;;;;;;1.67;1.57;;;;;;;1.11;100.00;98738.03;5110535;28;20228;-58
2023/01/21 06:30:32;;;;;;;2.67;1.73;;;;;;;1.07;100.00;98742.34;5110592;28;20229;-58
2023/01/21 06:32:59;;;;;;;0.63;0.60;;;;;;;1.01;100.00;98727.50;5109985;28;20677;-58
2023/01/21 06:35:26;;;;;;;1.73;1.63;;;;;;;1.06;100.00;98734.88;5109886;28;20243;-58
2023/01/21 06:37:52;;;;;;;1.23;1.00;;;;;;;1.20;100.00;98736.88;5109852;28;20208;-60
2023/01/21 06:40:19;;;;;;;0.70;0.60;;;;;;;1.25;100.00;98730.75;5110044;28;20224;-58
2023/01/21 06:42:47;;;;;;;3.80;0.70;;;;;;;1.40;100.00;98744.44;5110026;28;20224;-58
2023/01/21 06:45:16;;;;;;;0.27;0.27;;;;;;;1.44;100.00;98742.59;5110242;28;20221;-60
2023/01/21 06:47:43;;;;;;;0.77;0.70;;;;;;;1.61;100.00;98749.47;5109858;28;20217;-58
2023/01/21 06:50:12;;;;;;;0.30;0.30;;;;;;;1.88;100.00;98765.16;5109964;28;20221;-58
2023/01/21 06:52:40;;;;;;;0.47;0.47;;;;;;;1.78;100.00;98754.66;5109616;28;20200;-58
2023/01/21 06:55:07;;;;;;;0.80;0.80;;;;;;;1.97;100.00;98768.09;5110090;28;20263;-58
2023/01/21 06:57:34;;;;;;;0.20;0.20;;;;;;;1.86;100.00;98766.91;5109749;28;20197;-58
2023/01/21 07:00:01;;;;;;;1.10;1.00;;;;;;;2.10;100.00;98770.13;5109849;28;20709;-58
2023/01/21 07:02:29;;;;;;;0.60;0.60;;;;;;;2.23;100.00;98776.25;5109846;28;20193;-58
2023/01/21 07:04:56;;;;;;;0.97;0.83;;;;;;;1.96;100.00;98775.72;5110137;28;20221;-58
2023/01/21 07:07:23;;;;;;;0.90;0.90;;;;;;;2.11;100.00;98784.34;5113800;28;20197;-58
2023/01/21 07:09:50;;;;;;;0.40;0.40;;;;;;;2.30;100.00;98777.66;5113608;28;20225;-58
2023/01/21 07:12:17;;;;;;;0.43;0.43;;;;;;;2.44;100.00;98774.50;5114074;28;20208;-59
2023/01/21 07:14:44;;;;;;;0.50;0.50;;;;;;;2.51;100.00;98775.88;5113730;28;20229;-61
2023/01/21 07:17:10;;;;;;;0.27;0.27;;;;;;;2.52;100.00;98786.78;5113710;28;20212;-59
2023/01/21 07:19:39;;;;;;;0.77;0.67;;;;;;;2.31;100.00;98784.31;5113894;28;20221;-60
2023/01/21 07:22:05;;;;;;;0.57;0.47;;;;;;;2.24;100.00;98777.88;5113906;28;20220;-58
2023/01/21 07:24:32;;;;;;;4.80;1.10;;;;;;;2.57;100.00;98787.41;5113596;28;20724;-58
2023/01/21 07:26:59;;;;;;;0.47;0.47;;;;;;;2.93;100.00;98783.19;5113539;28;20212;-61
2023/01/21 07:29:26;;;;;;;0.50;0.50;;;;;;;3.33;100.00;98771.25;5113382;28;20220;-61
2023/01/21 07:31:53;;;;;;;0.67;0.63;;;;;;;3.11;100.00;98778.19;5113372;28;20197;-61
2023/01/21 07:34:20;;;;;;;0.40;0.40;;;;;;;2.99;100.00;98792.19;5113156;28;20229;-58
2023/01/21 07:36:48;;;;;;;1.00;0.60;;;;;;;3.10;100.00;98784.13;5113617;28;20231;-61
2023/01/21 07:39:15;;;;;;;2.60;0.70;;;;;;;3.53;100.00;98802.34;5113476;28;20308;-61
2023/01/21 07:41:42;;;;;;;0.70;0.70;;;;;;;3.24;100.00;98796.94;5113486;28;20213;-58
2023/01/21 07:44:09;;;;;;;0.40;0.40;;;;;;;3.52;100.00;98780.44;5112890;28;20216;-59
2023/01/21 07:46:36;;;;;;;1.10;1.03;;;;;;;4.00;100.00;98777.22;5113536;28;20202;-59
2023/01/21 07:49:04;;;;;;;1.13;1.03;;;;;;;4.32;100.00;98773.06;5113044;28;20231;-61
2023/01/21 07:51:30;;;;;;;0.97;0.80;;;;;;;4.45;100.00;98780.00;5113074;28;20204;-59
2023/01/21 07:53:59;;;;;;;1.23;1.03;;;;;;;4.47;99.66;98785.81;5113030;28;20220;-58
2023/01/21 07:56:26;;;;;;;0.57;0.57;;;;;;;3.97;100.00;98791.75;5112889;28;20696;-61
2023/01/21 07:58:53;;;;;;;0.60;0.60;;;;;;;3.80;100.00;98790.03;5112439;28;20827;-58
2023/01/21 08:01:20;;;;;;;0.43;0.40;;;;;;;3.72;100.00;98798.00;5112986;28;20700;-61
2023/01/21 08:03:47;;;;;;;1.17;0.67;;;;;;;3.72;100.00;98780.31;5112741;28;20213;-59
2023/01/21 08:06:15;;;;;;;0.73;0.73;;;;;;;4.18;100.00;98800.78;5112634;28;20697;-61
2023/01/21 08:08:42;;;;;;;0.60;0.60;;;;;;;4.80;100.00;98802.66;5112763;28;20631;-59
2023/01/21 08:11:10;;;;;;;3.80;0.77;;;;;;;4.98;97.58;98821.97;5112719;28;20193;-59
2023/01/21 08:13:37;;;;;;;1.80;1.20;;;;;;;5.25;96.71;98831.50;5112547;28;20217;-59
2023/01/21 08:16:04;;;;;;;0.70;0.70;;;;;;;5.26;95.19;98836.47;5112191;27;20221;-61
2023/01/21 08:18:32;;;;;;;1.00;0.90;;;;;;;5.43;95.13;98827.94;5112554;28;20213;-61
2023/01/21 08:20:59;;;;;;;1.20;0.90;;;;;;;5.72;93.96;98817.91;5112717;28;20200;-61
2023/01/21 08:23:26;;;;;;;1.23;0.70;;;;;;;6.10;91.23;98824.16;5112237;28;20200;-59
2023/01/21 08:25:53;;;;;;;1.70;1.23;;;;;;;6.00;92.79;98822.25;5112427;28;20201;-59
2023/01/21 08:28:22;;;;;;;0.47;0.33;;;;;;;6.33;89.56;98844.84;5112080;28;20215;-61
2023/01/21 08:30:49;;;;;;;1.60;1.27;;;;;;;5.85;92.24;98832.34;5112379;28;20199;-61
2023/01/21 08:33:16;;;;;;;1.70;0.90;;;;;;;6.21;90.89;98820.19;5112007;28;20200;-61
2023/01/21 08:35:43;;;;;;;2.20;1.57;;;;;;;6.31;89.72;98837.34;5112019;28;20236;-61
2023/01/21 08:38:10;;;;;;;1.47;0.97;;;;;;;6.77;88.95;98838.84;5111799;28;20206;-62
2023/01/21 08:40:37;;;;;;;2.53;1.33;;;;;;;6.39;89.24;98814.00;5112115;28;20676;-61
2023/01/21 08:43:06;;;;;;;2.13;0.87;;;;;;;6.85;87.61;98831.56;5112062;28;20575;-59
2023/01/21 08:45:34;;;;;;;1.70;1.13;;;;;;;7.09;85.11;98818.25;5112068;28;20606;-61
2023/01/21 08:48:03;;;;;;;2.93;1.17;;;;;;;6.99;86.09;98811.22;5111904;28;20193;-62
2023/01/21 08:50:30;;;;;;;0.80;0.80;;;;;;;7.39;84.90;98806.19;5111979;28;20270;-59
2023/01/21 08:52:57;;;;;;;1.40;0.90;;;;;;;6.76;87.14;98806.72;5111626;28;20193;-61
2023/01/21 08:55:25;;;;;;;2.37;1.10;;;;;;;6.95;88.62;98811.47;5112176;28;20244;-59
2023/01/21 08:57:53;;;;;;;1.07;0.83;;;;;;;7.31;83.78;98793.13;5111268;28;20197;-61
2023/01/21 09:00:21;;;;;;;0.60;0.60;;;;;;;6.88;85.35;98800.88;5111495;28;20256;-61
2023/01/21 09:02:50;;;;;;;1.67;1.10;;;;;;;7.01;85.60;98796.69;5111370;28;20208;-58
2023/01/21 09:05:17;;;;;;;0.97;0.93;;;;;;;7.08;85.77;98801.38;5111511;28;20228;-59
2023/01/21 09:07:45;;;;;;;1.00;0.90;;;;;;;7.30;85.30;98801.69;5111327;28;20198;-59
2023/01/21 09:10:59;;;;;;;1.10;1.00;;;;;;;7.35;88.00;98794.53;5111353;28;20217;-61
2023/01/21 09:13:02;;;;;;;1.50;0.70;;;;;;;7.51;85.83;98813.94;5111450;28;20669;-59
2023/01/21 09:15:29;;;;;;;1.13;1.03;;;;;;;7.39;86.89;98811.25;5111433;28;20252;-61
2023/01/21 09:17:58;;;;;;;1.97;1.30;;;;;;;6.96;87.67;98813.94;5111306;28;20203;-61
2023/01/21 09:20:24;;;;;;;1.67;1.03;;;;;;;6.49;89.35;98804.13;5111064;28;20216;-59
2023/01/21 09:22:51;;;;;;;0.67;0.67;;;;;;;6.19;90.91;98796.59;5111309;28;20193;-61
2023/01/21 09:25:18;;;;;;;3.13;2.00;;;;;;;5.76;95.46;98799.06;5111048;28;20604;-59
2023/01/21 09:27:45;;;;;;;1.40;1.27;;;;;;;5.73;96.61;98789.09;5110244;28;20198;-59
2023/01/21 09:30:13;;;;;;;1.10;1.07;;;;;;;5.74;97.69;98781.41;5111201;28;20213;-59
2023/01/21 09:32:40;;;;;;;1.93;1.70;;;;;;;5.86;96.05;98784.94;5110800;28;20666;-59
2023/01/21 09:35:09;;;;;;;1.63;0.83;;;;;;;6.35;95.42;98771.94;5111015;28;20228;-59
2023/01/21 09:37:37;;;;;;;0.70;0.70;;;;;;;6.38;92.77;98759.06;5110807;28;20201;-59
2023/01/21 09:40:04;;;;;;;0.73;0.73;;;;;;;5.90;95.07;98774.56;5110917;28;20224;-59
2023/01/21 09:42:33;;;;;;;1.27;1.10;;;;;;;5.77;99.13;98770.25;5110993;28;20212;-61
2023/01/21 09:45:02;;;;;;;1.67;1.27;;;;;;;5.81;98.74;98776.78;5111069;28;20233;-61
2023/01/21 09:47:34;;;;;;;1.90;1.07;;;;;;;5.75;98.62;98772.88;5110977;28;20197;-61
2023/01/21 09:50:07;;;;;;;1.37;1.07;;;;;;;5.57;99.49;98769.66;5111366;28;20224;-59
2023/01/21 09:52:39;;;;;;;0.97;0.97;;;;;;;5.55;100.00;98770.66;5110788;28;20243;-61
2023/01/21 09:55:12;;;;;;;0.90;0.83;;;;;;;5.93;100.00;98767.63;5111018;28;20688;-59
2023/01/21 09:58:00;;;;;;;0.70;0.70;;;;;;;6.83;98.25;98777.47;5110683;28;20669;-59
2023/01/21 10:00:35;;;;;;;1.47;0.80;;;;;;;7.38;92.77;98774.00;5110364;27;20221;-59
2023/01/21 10:03:12;;;;;;;2.90;1.50;;;;;;;8.11;92.00;98773.44;5110648;28;20235;-59
2023/01/21 10:05:53;;;;;;;1.73;1.47;;;;;;;8.38;85.49;98781.00;5110600;28;20212;-59
2023/01/21 10:08:30;;;;;;;1.27;1.13;;;;;;;8.36;86.66;98772.63;5110271;28;20197;-59
2023/01/21 10:11:12;;;;;;;2.53;1.47;;;;;;;8.43;83.99;98774.78;5110443;28;20201;-62
2023/01/21 10:13:52;;;;;;;1.00;1.00;;;;;;;8.79;84.21;98769.69;5110092;28;20217;-59
2023/01/21 10:16:28;;;;;;;1.23;1.13;;;;;;;9.25;84.83;98766.44;5110415;28;20231;-62
2023/01/21 10:18:57;;;;;;;1.07;1.03;;;;;;;9.64;81.86;98767.00;5110265;28;20217;-60
2023/01/21 10:21:31;;;;;;;1.63;0.93;;;;;;;9.89;80.85;98760.06;5110244;28;20197;-62
2023/01/21 10:24:04;;;;;;;3.67;1.80;;;;;;;8.97;84.03;98754.84;5110468;28;20423;-59
2023/01/21 10:26:34;;;;;;;1.13;1.03;;;;;;;8.93;84.94;98752.59;5110455;28;20234;-61
2023/01/21 10:29:02;;;;;;;1.03;0.93;;;;;;;9.02;82.61;98749.41;5110165;28;20223;-62
2023/01/21 10:31:32;;;;;;;1.03;0.97;;;;;;;8.57;84.89;98754.25;5110092;28;20201;-62
2023/01/21 10:33:59;;;;;;;0.97;0.70;;;;;;;8.06;86.14;98755.13;5109961;28;20209;-59
2023/01/21 10:36:54;;;;;;;2.17;1.07;;;;;;;7.99;90.84;98758.19;5110392;28;20256;-62
2023/01/21 10:39:35;;;;;;;0.57;0.57;;;;;;;7.72;91.38;98756.56;5111139;28;20220;-59
2023/01/21 10:42:16;;;;;;;0.83;0.73;;;;;;;7.81;91.49;98750.84;5114569;28;20200;-59
2023/01/21 10:44:53;;;;;;;1.37;1.13;;;;;;;7.84;91.59;98744.75;5114256;28;20254;-62
2023/01/21 10:47:29;;;;;;;0.47;0.47;;;;;;;7.85;93.59;98752.31;5114272;28;20687;-59
2023/01/21 10:50:03;;;;;;;0.57;0.57;;;;;;;7.81;92.23;98748.31;5114421;28;20224;-62
2023/01/21 10:52:38;;;;;;;1.03;0.80;;;;;;;7.88;92.17;98741.91;5114104;28;20193;-62
2023/01/21 10:55:19;;;;;;;1.03;0.87;;;;;;;7.58;93.71;98741.38;5113706;28;20247;-59
2023/01/21 10:57:55;;;;;;;1.17;0.83;;;;;;;7.37;95.69;98734.25;5113926;28;20657;-59
2023/01/21 11:00:25;;;;;;;1.17;1.07;;;;;;;7.17;98.54;98739.78;5113563;28;20216;-62
2023/01/21 11:02:57;;;;;;;0.67;0.67;;;;;;;7.15;99.29;98736.53;5113860;28;20205;-59
2023/01/21 11:05:26;;;;;;;0.50;0.50;;;;;;;7.18;99.16;98733.78;5113834;28;20255;-59
2023/01/21 11:07:55;;;;;;;1.23;0.73;;;;;;;7.29;100.00;98722.94;5113626;28;20477;-59
2023/01/21 11:10:25;;;;;;;0.80;0.80;;;;;;;7.67;99.68;98717.88;5113559;28;20213;-62
2023/01/21 11:12:54;;;;;;;1.00;0.80;;;;;;;7.58;97.24;98718.50;5113521;28;20197;-60
2023/01/21 11:15:23;;;;;;;2.80;1.57;;;;;;;7.84;98.85;98729.47;5113332;28;20229;-60
2023/01/21 11:17:55;;;;;;;3.17;1.67;;;;;;;8.14;99.07;98724.06;5113622;28;20585;-62
2023/01/21 11:20:29;;;;;;;2.03;1.30;;;;;;;8.78;93.75;98737.47;5113470;28;20336;-62
2023/01/21 11:22:56;;;;;;;0.60;0.60;;;;;;;9.52;91.30;98721.97;5113391;28;20193;-62
2023/01/21 11:25:35;;;;;;;1.07;0.97;;;;;;;9.68;89.35;98712.22;5113721;28;20226;-60
2023/01/21 11:28:02;;;;;;;1.53;1.20;;;;;;;9.89;87.71;98711.56;5113200;28;20216;-63
2023/01/21 11:30:33;;;;;;;1.93;1.30;;;;;;;10.26;88.21;98711.31;5113631;28;20213;-62
2023/01/21 11:33:20;;;;;;;1.53;1.23;;;;;;;10.50;87.13;98706.91;5113466;28;20208;-63
2023/01/21 11:35:47;;;;;;;1.47;1.10;;;;;;;10.39;84.87;98712.03;5113456;28;20221;-62
2023/01/21 11:38:24;;;;;;;1.97;1.03;;;;;;;10.06;86.58;98710.28;5113399;28;20194;-62
2023/01/21 11:41:02;;;;;;;2.43;1.37;;;;;;;10.14;87.56;98708.78;5113319;28;20661;-63
2023/01/21 11:43:40;;;;;;;1.00;0.80;;;;;;;9.84;89.68;98706.00;5113224;28;20731;-63
2023/01/21 11:46:30;;;;;;;2.17;1.50;;;;;;;9.14;93.58;98697.53;5113466;28;20211;-59
2023/01/21 11:49:21;;;;;;;2.60;1.43;;;;;;;9.10;96.33;98696.09;5113117;28;20217;-63
2023/01/21 11:51:47;;;;;;;1.97;1.27;;;;;;;8.79;97.35;98688.13;5112181;28;20213;-60